Time;durP1;ratioP1;P1;durP2;ratioP2;P2;SDS_P1;SDS_P2;PMS_P1;PMS_P2;Temp;Humidity;BMP_temperature;BMP_pressure;BME280_temperature;BME280_humidity;BME280_pressure;Samples;Min_cycle;Max_cycle;Signal;HPM_P1;HPM_P2
2022/07/18 00:01:37;;;;;;;8.48;2.40;;;;;;;19.82;43.38;96170.97;5086793;28;20493;-77
2022/07/18 00:04:02;;;;;;;3.92;2.47;;;;;;;19.83;43.33;96172.63;5069394;28;20020;-79
2022/07/18 00:06:28;;;;;;;4.68;2.35;;;;;;;19.77;43.35;96170.78;5068165;28;20030;-79
2022/07/18 00:08:53;;;;;;;3.50;2.40;;;;;;;19.69;43.21;96168.28;5087094;28;20032;-78
2022/07/18 00:11:19;;;;;;;3.28;2.20;;;;;;;19.44;43.63;96164.41;5085740;28;20097;-78
2022/07/18 00:13:45;;;;;;;4.70;2.20;;;;;;;19.55;43.18;96171.09;5087221;28;20027;-78
2022/07/18 00:16:10;;;;;;;4.55;2.42;;;;;;;19.56;42.81;96167.31;5085943;28;20040;-78
2022/07/18 00:18:35;;;;;;;3.58;2.33;;;;;;;19.50;43.20;96169.03;5068692;28;20067;-79
2022/07/18 00:21:01;;;;;;;6.28;2.25;;;;;;;19.39;42.56;96161.53;5068353;28;20024;-78
2022/07/18 00:23:26;;;;;;;3.85;2.13;;;;;;;19.41;42.14;96156.69;5068491;28;20054;-79
2022/07/18 00:25:52;;;;;;;4.18;2.05;;;;;;;19.26;42.43;96162.41;5086867;28;20039;-78
2022/07/18 00:28:17;;;;;;;5.35;2.00;;;;;;;19.24;42.28;96159.06;5085978;28;20097;-78
2022/07/18 00:30:43;;;;;;;4.97;2.00;;;;;;;19.19;42.46;96156.16;5051769;28;20093;-79
2022/07/18 00:33:08;;;;;;;5.72;1.90;;;;;;;19.18;42.34;96159.94;5067570;28;20024;-78
2022/07/18 00:35:34;;;;;;;4.00;2.03;;;;;;;18.97;42.51;96159.13;5068418;28;20035;-79
2022/07/18 00:38:01;;;;;;;2.63;1.88;;;;;;;18.87;42.89;96154.97;5086069;28;20020;-79
2022/07/18 00:40:27;;;;;;;4.30;2.20;;;;;;;18.91;42.59;96152.63;5068597;28;20445;-79
2022/07/18 00:42:53;;;;;;;3.78;1.92;;;;;;;18.86;42.43;96147.03;5086607;28;20056;-79
2022/07/18 00:45:18;;;;;;;4.03;1.70;;;;;;;18.89;42.73;96155.56;5086100;28;20020;-79
2022/07/18 00:47:44;;;;;;;5.00;1.77;;;;;;;18.83;41.88;96159.13;5068382;28;20028;-79
2022/07/18 00:50:09;;;;;;;2.88;1.73;;;;;;;18.77;41.49;96160.84;5067313;28;20028;-78
2022/07/18 00:52:36;;;;;;;3.75;1.67;;;;;;;18.71;41.16;96169.00;5051428;28;20032;-78
2022/07/18 00:55:02;;;;;;;2.63;1.63;;;;;;;18.68;41.47;96163.97;5085290;28;20066;-78
2022/07/18 00:57:27;;;;;;;3.13;1.60;;;;;;;18.68;42.09;96163.97;5068310;28;20784;-78
2022/07/18 01:02:37;;;;;;;2.58;1.60;;;;;;;18.65;41.30;96168.78;5055962;28;20128;-79
2022/07/18 01:05:03;;;;;;;2.80;1.85;;;;;;;18.71;42.85;96169.00;5086293;28;20024;-79
2022/07/18 01:07:29;;;;;;;5.90;1.67;;;;;;;18.70;43.67;96170.84;5085191;28;20042;-78
2022/07/18 01:09:54;;;;;;;2.85;1.98;;;;;;;18.73;42.89;96175.06;5086934;28;20933;-78
2022/07/18 01:12:19;;;;;;;3.30;2.13;;;;;;;18.70;42.67;96178.19;5086311;28;20521;-79
2022/07/18 01:14:45;;;;;;;4.22;1.73;;;;;;;18.70;42.92;96172.75;5086706;28;20343;-78
2022/07/18 01:17:15;;;;;;;3.00;1.90;;;;;;;18.55;43.12;96173.81;5068721;28;20043;-79
2022/07/18 01:19:41;;;;;;;2.53;1.70;;;;;;;18.52;42.63;96171.53;5086958;28;20439;-79
2022/07/18 01:22:06;;;;;;;5.88;1.85;;;;;;;18.37;43.24;96164.41;5069045;28;20520;-78
2022/07/18 01:24:32;;;;;;;3.78;1.42;;;;;;;18.35;42.57;96169.22;5086553;28;20035;-79
2022/07/18 01:26:57;;;;;;;2.72;1.70;;;;;;;18.25;42.42;96166.09;5068667;28;20028;-78
2022/07/18 01:29:23;;;;;;;2.97;1.80;;;;;;;18.09;41.61;96164.56;5066858;28;20020;-81
2022/07/18 01:31:48;;;;;;;2.78;1.50;;;;;;;18.17;41.25;96161.66;5090704;28;20027;-78
2022/07/18 01:34:13;;;;;;;4.00;1.40;;;;;;;18.11;41.84;96160.59;5093020;28;20028;-79
2022/07/18 01:36:39;;;;;;;2.78;1.55;;;;;;;18.12;41.19;96153.34;5069601;28;20471;-78
2022/07/18 01:39:04;;;;;;;3.92;1.70;;;;;;;17.97;41.79;96154.34;5085992;28;20065;-79
2022/07/18 01:41:30;;;;;;;3.72;1.63;;;;;;;18.03;42.44;96156.22;5068168;28;20036;-78
2022/07/18 01:43:55;;;;;;;2.88;1.50;;;;;;;18.03;41.91;96149.94;5051248;28;20032;-78
2022/07/18 01:46:21;;;;;;;2.65;1.35;;;;;;;18.02;41.41;96148.28;5067964;28;20032;-78
2022/07/18 01:48:46;;;;;;;2.40;1.58;;;;;;;18.07;40.56;96153.91;5086087;28;20034;-78
2022/07/18 01:51:11;;;;;;;2.50;1.25;;;;;;;18.03;40.15;96150.78;5085666;28;20035;-78
2022/07/18 01:53:40;;;;;;;2.30;1.33;;;;;;;17.91;40.53;96152.44;5068593;28;20024;-78
2022/07/18 01:56:06;;;;;;;4.45;1.60;;;;;;;17.85;40.39;96147.81;5066426;28;20031;-79
2022/07/18 01:58:31;;;;;;;4.72;1.50;;;;;;;17.64;40.50;96147.78;5085962;28;20024;-78
2022/07/18 02:00:57;;;;;;;2.03;1.40;;;;;;;17.62;40.92;96155.28;5085100;28;20031;-78
2022/07/18 02:03:22;;;;;;;2.22;1.42;;;;;;;17.67;41.40;96152.78;5085887;28;20043;-78
2022/07/18 02:05:48;;;;;;;3.85;1.50;;;;;;;17.79;42.02;96150.34;5085928;28;20035;-79
2022/07/18 02:08:13;;;;;;;3.35;1.40;;;;;;;17.82;41.16;96149.06;5068147;28;20016;-79
2022/07/18 02:10:39;;;;;;;3.15;1.50;;;;;;;17.92;42.05;96165.81;5085704;28;20086;-79
2022/07/18 02:13:04;;;;;;;3.63;1.60;;;;;;;17.94;42.14;96157.47;5086051;28;20467;-79
2022/07/18 02:15:30;;;;;;;3.92;1.50;;;;;;;17.91;42.41;96166.81;5068575;28;20059;-79
2022/07/18 02:17:55;;;;;;;3.08;1.33;;;;;;;17.74;42.33;96163.66;5050174;28;20020;-79
2022/07/18 02:20:21;;;;;;;3.67;1.50;;;;;;;17.78;41.95;96159.50;5086944;28;20099;-79
2022/07/18 02:22:46;;;;;;;3.75;1.50;;;;;;;17.70;42.35;96167.81;5089510;28;20048;-79
2022/07/18 02:25:12;;;;;;;2.50;1.40;;;;;;;17.71;42.99;96165.94;5089617;28;20117;-78
2022/07/18 02:27:37;;;;;;;2.95;1.45;;;;;;;17.50;42.59;96168.59;5089523;28;20032;-79
2022/07/18 02:30:04;;;;;;;6.43;1.60;;;;;;;17.59;42.48;96171.97;5071530;28;20028;-79
2022/07/18 02:32:30;;;;;;;4.13;1.50;;;;;;;17.55;42.60;96176.13;5090001;28;20039;-78
2022/07/18 02:34:55;;;;;;;2.70;1.52;;;;;;;17.42;42.62;96182.34;5054533;28;20016;-79
2022/07/18 02:37:20;;;;;;;4.90;1.90;;;;;;;17.47;42.82;96187.16;5090180;28;20031;-79
2022/07/18 02:39:46;;;;;;;2.92;1.60;;;;;;;17.41;42.92;96184.19;5070536;28;20020;-79
2022/07/18 02:42:11;;;;;;;3.45;1.73;;;;;;;17.29;42.76;96191.25;5089763;28;20444;-78
2022/07/18 02:44:37;;;;;;;2.10;1.40;;;;;;;17.21;43.37;96189.53;5070458;28;20402;-78
2022/07/18 02:47:02;;;;;;;2.42;1.40;;;;;;;17.10;42.92;96190.09;5070659;28;20398;-78
2022/07/18 02:49:28;;;;;;;2.55;1.35;;;;;;;17.19;42.37;96186.19;5070517;28;20032;-79
2022/07/18 02:51:58;;;;;;;4.53;1.48;;;;;;;17.21;42.06;96185.97;5071044;28;20078;-79
2022/07/18 02:54:23;;;;;;;5.00;2.47;;;;;;;17.11;41.91;96187.19;5088920;28;20020;-79
2022/07/18 02:56:49;;;;;;;3.42;1.40;;;;;;;17.07;42.42;96196.75;5070728;28;20130;-79
2022/07/18 02:59:14;;;;;;;4.13;1.50;;;;;;;17.03;42.23;96198.16;5088742;28;20463;-79
2022/07/18 03:01:40;;;;;;;3.03;1.50;;;;;;;17.00;42.44;96196.69;5069532;28;20024;-79
2022/07/18 03:04:05;;;;;;;2.90;1.58;;;;;;;16.96;42.50;96200.81;5070694;28;20243;-78
2022/07/18 03:06:31;;;;;;;4.85;1.60;;;;;;;16.77;43.07;96195.06;5053027;28;20093;-79
2022/07/18 03:08:56;;;;;;;2.90;1.50;;;;;;;16.76;42.92;96204.25;5088609;28;20043;-78
2022/07/18 03:11:22;;;;;;;3.53;1.60;;;;;;;16.81;42.78;96203.66;5087984;28;20036;-79
2022/07/18 03:13:47;;;;;;;3.35;1.60;;;;;;;16.81;42.89;96203.66;5070570;28;20020;-78
2022/07/18 03:16:13;;;;;;;2.10;1.40;;;;;;;16.88;43.24;96201.81;5088261;28;20062;-78
2022/07/18 03:18:38;;;;;;;2.55;1.60;;;;;;;16.96;42.41;96203.53;5088845;28;20020;-79
2022/07/18 03:21:04;;;;;;;5.40;1.77;;;;;;;16.92;42.55;96211.22;5088696;28;20016;-78
2022/07/18 03:23:29;;;;;;;2.42;1.40;;;;;;;16.95;43.59;96201.84;5052459;28;20471;-78
2022/07/18 03:25:55;;;;;;;2.70;1.50;;;;;;;16.98;42.65;96206.03;5089905;28;20036;-78
2022/07/18 03:28:20;;;;;;;2.80;1.67;;;;;;;17.01;41.91;96202.94;5076358;28;20035;-78
2022/07/18 03:30:45;;;;;;;2.35;1.40;;;;;;;16.98;42.28;96203.31;5092014;28;20453;-79
2022/07/18 03:33:11;;;;;;;3.67;1.70;;;;;;;16.94;41.79;96205.63;5087180;28;20054;-79
2022/07/18 03:35:36;;;;;;;8.05;1.70;;;;;;;16.94;42.16;96208.31;5087745;28;20028;-79
2022/07/18 03:38:02;;;;;;;3.22;1.50;;;;;;;16.98;42.53;96197.91;5069707;28;20020;-79
2022/07/18 03:40:27;;;;;;;3.15;1.65;;;;;;;16.97;42.28;96205.22;5087431;28;20025;-79
2022/07/18 03:42:53;;;;;;;3.05;1.70;;;;;;;17.03;42.40;96207.13;5088352;28;20020;-79
2022/07/18 03:45:18;;;;;;;4.60;2.25;;;;;;;16.99;42.96;96202.31;5069159;28;20024;-78
2022/07/18 03:47:44;;;;;;;2.65;1.75;;;;;;;17.03;42.46;96200.88;5069688;28;20027;-77
2022/07/18 03:50:09;;;;;;;5.60;1.83;;;;;;;17.03;42.72;96211.69;5068909;28;20028;-79
2022/07/18 03:52:34;;;;;;;2.67;1.48;;;;;;;16.99;41.92;96207.72;5087500;28;20024;-78
2022/07/18 03:55:01;;;;;;;7.43;1.70;;;;;;;17.00;42.59;96212.94;5087905;28;20082;-78
2022/07/18 03:57:27;;;;;;;3.90;1.90;;;;;;;16.93;44.22;96212.06;5069751;28;20432;-79
2022/07/18 03:59:53;;;;;;;5.20;2.22;;;;;;;16.99;44.48;96224.00;5069447;28;20532;-78
2022/07/18 04:02:18;;;;;;;5.03;1.77;;;;;;;16.94;44.69;96221.88;5069356;28;20059;-78
2022/07/18 04:04:43;;;;;;;2.90;1.70;;;;;;;16.95;43.55;96218.13;5069422;28;20124;-79
2022/07/18 04:07:10;;;;;;;5.05;1.88;;;;;;;16.96;43.93;96219.78;5086897;28;20093;-78
2022/07/18 04:09:35;;;;;;;4.35;1.55;;;;;;;16.88;44.18;96220.78;5068726;28;20032;-79
2022/07/18 04:12:00;;;;;;;3.85;1.52;;;;;;;16.99;43.38;96232.13;5051896;28;20057;-79
2022/07/18 04:14:26;;;;;;;7.18;1.70;;;;;;;17.05;43.47;96225.91;5088799;28;20043;-79
2022/07/18 04:16:51;;;;;;;3.05;1.40;;;;;;;17.04;43.49;96219.63;5068209;28;20059;-78
2022/07/18 04:19:17;;;;;;;3.30;1.67;;;;;;;17.00;43.31;96212.94;5068743;28;20024;-79
2022/07/18 04:21:43;;;;;;;3.75;1.90;;;;;;;17.10;43.06;96212.63;5068293;28;20031;-79
2022/07/18 04:24:08;;;;;;;4.38;1.90;;;;;;;17.14;43.37;96213.03;5086622;28;20051;-79
2022/07/18 04:26:33;;;;;;;3.20;1.58;;;;;;;17.33;42.65;96210.66;5068510;28;20044;-78
2022/07/18 04:28:59;;;;;;;3.65;1.60;;;;;;;17.49;43.06;96204.06;5067881;28;20430;-78
2022/07/18 04:31:24;;;;;;;6.90;1.73;;;;;;;17.58;41.75;96202.00;5051880;28;20027;-80
2022/07/18 04:33:50;;;;;;;2.40;1.50;;;;;;;17.60;41.02;96211.63;5051628;28;20013;-79
2022/07/18 04:36:15;;;;;;;2.58;1.48;;;;;;;17.75;40.62;96203.31;5068264;28;20117;-79
2022/07/18 04:38:41;;;;;;;4.00;1.55;;;;;;;17.92;40.87;96209.22;5085919;28;20028;-80
2022/07/18 04:41:06;;;;;;;3.08;1.45;;;;;;;18.03;40.81;96199.63;5051943;28;20475;-78
2022/07/18 04:43:32;;;;;;;5.15;1.70;;;;;;;18.09;42.88;96197.97;5068565;28;20399;-79
2022/07/18 04:45:57;;;;;;;3.30;1.88;;;;;;;18.18;42.79;96197.81;5077012;28;20084;-78
2022/07/18 04:48:23;;;;;;;4.25;1.80;;;;;;;18.34;42.67;96200.13;5073118;28;20028;-78
2022/07/18 04:50:48;;;;;;;7.18;1.92;;;;;;;18.56;42.00;96201.78;5086246;28;20062;-79
2022/07/18 04:53:14;;;;;;;5.55;1.50;;;;;;;18.73;42.56;96194.06;5086875;28;20024;-79
2022/07/18 04:55:39;;;;;;;4.40;1.83;;;;;;;18.82;44.11;96198.25;5067691;28;20108;-79
2022/07/18 04:58:05;;;;;;;3.33;1.63;;;;;;;18.92;42.93;96199.69;5086404;28;20020;-80
2022/07/18 05:00:30;;;;;;;3.05;1.85;;;;;;;19.05;42.68;96199.69;5068238;28;20028;-79
2022/07/18 05:02:56;;;;;;;7.03;2.53;;;;;;;19.13;41.61;96201.34;5051753;28;20567;-79
2022/07/18 05:05:22;;;;;;;4.25;2.58;;;;;;;19.24;42.83;96195.28;5087314;28;20028;-80
2022/07/18 05:07:48;;;;;;;4.63;1.75;;;;;;;19.45;42.83;96209.63;5068524;28;20024;-80
2022/07/18 05:10:14;;;;;;;3.17;1.45;;;;;;;19.58;41.71;96197.88;5052293;28;20028;-80
2022/07/18 05:12:41;;;;;;;3.10;1.83;;;;;;;19.72;41.15;96200.50;5068111;28;20326;-79
2022/07/18 05:15:08;;;;;;;3.15;1.70;;;;;;;19.82;42.01;96195.44;5067564;28;20466;-79
2022/07/18 05:17:33;;;;;;;3.25;1.90;;;;;;;19.96;41.63;96198.94;5051418;28;20123;-78
2022/07/18 05:19:59;;;;;;;6.63;1.50;;;;;;;20.05;40.78;96196.84;5034648;28;20127;-79
2022/07/18 05:22:24;;;;;;;3.75;1.80;;;;;;;20.10;40.74;96196.97;5067496;28;20020;-79
2022/07/18 05:24:50;;;;;;;5.78;1.92;;;;;;;20.12;40.14;96194.88;5085966;28;20107;-79
2022/07/18 05:27:15;;;;;;;3.72;1.58;;;;;;;20.09;40.14;96195.31;5051413;28;20047;-78
2022/07/18 05:29:41;;;;;;;2.42;1.60;;;;;;;20.29;40.89;96194.38;5067618;28;20430;-79
2022/07/18 05:32:07;;;;;;;5.32;1.75;;;;;;;20.41;40.30;96190.94;5086079;28;20058;-79
2022/07/18 05:34:33;;;;;;;9.15;1.98;;;;;;;20.53;39.88;96191.88;5085880;28;20020;-79
2022/07/18 05:36:58;;;;;;;3.47;1.60;;;;;;;20.71;39.17;96193.00;5085539;28;20035;-79
2022/07/18 05:39:23;;;;;;;3.85;1.60;;;;;;;20.91;39.06;96206.44;5051036;28;20024;-79
2022/07/18 05:41:49;;;;;;;3.63;1.50;;;;;;;21.03;37.64;96194.81;5067974;28;20035;-79
2022/07/18 05:44:14;;;;;;;3.10;1.15;;;;;;;21.09;37.20;96200.22;5067556;28;20027;-79
2022/07/18 05:46:40;;;;;;;4.05;1.48;;;;;;;21.32;36.97;96204.19;5068471;28;20016;-79
2022/07/18 05:49:05;;;;;;;5.13;1.67;;;;;;;20.84;37.80;96201.06;5067358;28;20024;-80
2022/07/18 05:51:31;;;;;;;5.28;1.60;;;;;;;20.99;37.69;96203.44;5067995;28;20024;-80
2022/07/18 05:53:56;;;;;;;4.45;1.30;;;;;;;21.14;36.64;96201.41;5085439;28;20024;-80
2022/07/18 05:56:21;;;;;;;4.22;1.70;;;;;;;21.36;36.63;96201.84;5085157;28;20024;-81
2022/07/18 05:58:47;;;;;;;3.42;1.35;;;;;;;21.61;36.75;96193.56;5085585;28;20539;-81
2022/07/18 06:01:16;;;;;;;2.47;1.48;;;;;;;21.80;36.76;96199.00;5085042;28;20402;-80
2022/07/18 06:03:42;;;;;;;2.80;1.15;;;;;;;21.94;36.45;96198.84;5035908;28;20125;-80
2022/07/18 06:06:08;;;;;;;2.95;1.40;;;;;;;21.98;36.36;96198.16;5067103;28;20522;-79
2022/07/18 06:08:33;;;;;;;2.30;1.33;;;;;;;21.84;35.53;96193.94;5067267;28;20032;-80
2022/07/18 06:10:59;;;;;;;1.88;1.15;;;;;;;21.79;35.72;96201.97;5085134;28;20043;-80
2022/07/18 06:13:24;;;;;;;2.33;1.25;;;;;;;21.69;38.52;96200.59;5084682;28;20051;-80
2022/07/18 06:15:49;;;;;;;2.25;1.20;;;;;;;21.97;37.47;96199.19;5066814;28;20052;-79
2022/07/18 06:18:15;;;;;;;6.30;1.60;;;;;;;22.23;36.10;96205.34;5084744;28;20035;-79
2022/07/18 06:20:40;;;;;;;5.28;1.15;;;;;;;22.28;34.59;96204.66;5066932;28;20035;-80
2022/07/18 06:23:06;;;;;;;6.28;1.20;;;;;;;21.89;32.89;96205.00;5084358;28;20024;-80
2022/07/18 06:25:32;;;;;;;4.63;1.10;;;;;;;21.97;33.80;96198.38;5085375;28;20081;-79
2022/07/18 06:27:57;;;;;;;3.03;1.23;;;;;;;22.16;32.79;96198.31;5084758;28;20319;-80
2022/07/18 06:30:23;;;;;;;2.67;1.13;;;;;;;22.04;32.44;96196.38;5084589;28;20032;-81
2022/07/18 06:32:48;;;;;;;2.53;1.10;;;;;;;22.41;31.96;96194.59;5049782;28;20024;-79
2022/07/18 06:35:14;;;;;;;4.07;1.17;;;;;;;22.35;32.18;96194.47;5084271;28;20474;-80
2022/07/18 06:37:39;;;;;;;2.45;1.10;;;;;;;22.26;31.50;96189.56;5066499;28;20016;-80
2022/07/18 06:40:05;;;;;;;3.83;1.10;;;;;;;22.57;30.61;96182.16;5066198;28;20032;-79
2022/07/18 06:42:31;;;;;;;2.63;1.10;;;;;;;22.16;31.06;96176.47;5066350;28;20152;-81
2022/07/18 06:44:56;;;;;;;7.35;1.10;;;;;;;22.17;30.40;96178.97;5066387;28;20536;-81
2022/07/18 06:47:22;;;;;;;3.67;1.23;;;;;;;22.21;30.04;96180.19;5066445;28;20024;-80
2022/07/18 06:49:47;;;;;;;2.13;0.93;;;;;;;22.50;29.72;96185.00;5066148;28;20540;-79
2022/07/18 06:52:15;;;;;;;1.65;0.63;;;;;;;22.50;28.41;96174.06;5084342;28;20028;-80
2022/07/18 06:54:41;;;;;;;1.67;0.70;;;;;;;22.90;27.49;96171.72;5084850;28;20054;-80
2022/07/18 06:57:09;;;;;;;2.22;0.82;;;;;;;22.91;28.12;96178.88;5084259;28;20450;-79
2022/07/18 06:59:35;;;;;;;4.97;1.17;;;;;;;22.92;29.16;96173.19;5084062;28;20418;-81
2022/07/18 07:02:01;;;;;;;2.17;1.13;;;;;;;22.97;29.33;96164.25;5049418;28;20024;-80
2022/07/18 07:04:26;;;;;;;2.53;1.27;;;;;;;23.15;29.03;96165.19;5049814;28;20023;-80
2022/07/18 07:06:52;;;;;;;2.22;1.00;;;;;;;23.04;28.72;96159.47;5085021;28;20043;-79
2022/07/18 07:09:17;;;;;;;3.67;1.13;;;;;;;23.12;27.22;96162.94;5088257;28;20028;-80
2022/07/18 07:11:43;;;;;;;4.85;1.00;;;;;;;22.91;26.75;96160.56;5069694;28;20024;-79
2022/07/18 07:14:08;;;;;;;4.63;0.93;;;;;;;22.80;27.59;96166.84;5069469;28;20108;-81
2022/07/18 07:16:34;;;;;;;3.03;1.20;;;;;;;23.13;27.57;96159.13;5087115;28;20576;-80
2022/07/18 07:18:59;;;;;;;2.40;0.77;;;;;;;23.09;26.34;96156.03;5036066;28;20475;-81
2022/07/18 07:21:25;;;;;;;2.65;0.90;;;;;;;22.86;26.59;96148.69;5069543;28;20044;-81
2022/07/18 07:23:50;;;;;;;1.60;0.70;;;;;;;23.01;25.61;96156.38;5069049;28;20169;-80
2022/07/18 07:26:16;;;;;;;4.65;0.85;;;;;;;22.94;25.83;96159.25;5069707;28;20024;-81
2022/07/18 07:28:42;;;;;;;2.67;0.98;;;;;;;23.20;26.02;96159.81;5068915;28;20468;-80
2022/07/18 07:31:07;;;;;;;2.55;1.02;;;;;;;23.08;26.23;96160.69;5069366;28;20028;-80
2022/07/18 07:33:33;;;;;;;1.70;0.82;;;;;;;22.83;27.64;96155.44;5069201;28;20456;-80
2022/07/18 07:35:59;;;;;;;3.17;0.93;;;;;;;22.77;26.45;96165.44;5069179;28;20039;-81
2022/07/18 07:38:28;;;;;;;2.15;0.88;;;;;;;22.25;27.58;96152.41;5052742;28;20076;-82
2022/07/18 07:40:54;;;;;;;5.90;1.00;;;;;;;22.29;26.73;96154.44;5087226;28;20031;-81
2022/07/18 07:43:19;;;;;;;1.83;0.70;;;;;;;22.19;27.06;96155.00;5087716;28;20442;-80
2022/07/18 07:45:51;;;;;;;1.40;0.70;;;;;;;22.62;26.31;96154.97;5069743;28;20241;-80
2022/07/18 07:48:16;;;;;;;1.90;0.90;;;;;;;22.53;26.81;96157.19;5071391;28;20028;-80
2022/07/18 07:50:42;;;;;;;2.28;1.17;;;;;;;22.59;26.44;96152.66;5086951;28;20031;-80
2022/07/18 07:53:07;;;;;;;4.05;0.95;;;;;;;22.55;27.46;96156.97;5051903;28;20028;-80
2022/07/18 07:55:33;;;;;;;2.38;0.70;;;;;;;22.67;25.28;96149.63;5068984;28;20395;-82
2022/07/18 07:57:58;;;;;;;4.20;1.00;;;;;;;23.13;25.46;96149.00;5074256;28;20063;-79
2022/07/18 08:00:24;;;;;;;1.75;0.80;;;;;;;23.12;26.13;96152.00;5058009;28;20024;-79
2022/07/18 08:02:51;;;;;;;2.97;0.68;;;;;;;23.30;26.02;96161.94;5071010;28;20478;-80
2022/07/18 08:05:16;;;;;;;2.90;0.70;;;;;;;23.69;26.76;96159.50;5053300;28;20024;-80
2022/07/18 08:07:43;;;;;;;3.22;0.88;;;;;;;24.06;25.58;96160.19;5087467;28;20031;-80
2022/07/18 08:10:09;;;;;;;2.85;0.88;;;;;;;24.15;25.35;96155.97;5072183;28;20040;-80
2022/07/18 08:12:34;;;;;;;3.42;0.85;;;;;;;24.14;25.25;96156.19;5035711;28;20392;-81
2022/07/18 08:15:00;;;;;;;2.85;1.17;;;;;;;23.99;26.34;96154.84;5087057;28;20093;-80
2022/07/18 08:17:26;;;;;;;2.08;0.90;;;;;;;24.30;25.11;96149.94;5069933;28;20040;-80
2022/07/18 08:19:52;;;;;;;2.60;1.00;;;;;;;24.47;25.88;96148.31;5070838;28;20036;-81
2022/07/18 08:22:17;;;;;;;2.33;0.70;;;;;;;24.55;24.70;96151.44;5087866;28;20028;-83
2022/07/18 08:24:43;;;;;;;1.77;0.80;;;;;;;24.55;25.81;96150.63;5069515;28;20024;-81
2022/07/18 08:27:09;;;;;;;2.38;0.90;;;;;;;24.50;26.67;96148.66;5069332;28;20085;-81
2022/07/18 08:29:34;;;;;;;1.30;0.73;;;;;;;24.53;25.88;96156.38;5086629;28;20420;-80
2022/07/18 08:32:00;;;;;;;3.38;0.77;;;;;;;24.59;26.04;96153.69;5051523;28;20031;-81
2022/07/18 08:34:25;;;;;;;1.80;0.80;;;;;;;24.70;25.58;96147.28;5051843;28;20417;-80
2022/07/18 08:36:51;;;;;;;3.63;0.85;;;;;;;24.77;25.23;96153.44;5068160;28;20115;-81
2022/07/18 08:39:16;;;;;;;2.97;1.30;;;;;;;24.79;25.26;96145.81;5086558;28;20031;-81
2022/07/18 08:41:43;;;;;;;3.08;0.85;;;;;;;24.92;26.39;96149.31;5068147;28;20028;-79
2022/07/18 08:44:08;;;;;;;4.80;0.80;;;;;;;24.97;25.62;96157.63;5068138;28;20032;-81
2022/07/18 08:46:34;;;;;;;2.28;0.80;;;;;;;24.90;25.43;96152.31;5051231;28;20043;-80
2022/07/18 08:48:59;;;;;;;2.47;0.90;;;;;;;24.74;26.76;96148.47;5051438;28;20032;-82
2022/07/18 08:51:24;;;;;;;4.07;0.93;;;;;;;24.91;25.55;96147.63;5068380;28;20020;-81
2022/07/18 08:53:51;;;;;;;5.28;1.35;;;;;;;24.56;26.09;96147.66;5068351;28;20520;-81
2022/07/18 08:56:17;;;;;;;4.80;1.02;;;;;;;24.40;27.16;96142.97;5051505;28;20115;-80
2022/07/18 08:58:42;;;;;;;7.75;1.27;;;;;;;24.56;26.82;96142.16;5068131;28;20032;-79
2022/07/18 09:01:08;;;;;;;3.85;0.80;;;;;;;24.02;26.75;96143.38;5034949;28;20028;-80
2022/07/18 09:03:33;;;;;;;5.70;1.08;;;;;;;23.73;27.06;96142.59;5085899;28;20086;-80
2022/07/18 09:06:04;;;;;;;1.80;0.93;;;;;;;24.11;26.42;96132.03;5086730;28;20035;-80
2022/07/18 09:08:30;;;;;;;2.92;0.90;;;;;;;24.41;25.85;96128.19;5068100;28;20059;-82
2022/07/18 09:10:57;;;;;;;2.35;1.00;;;;;;;24.53;25.69;96125.38;5086083;28;20333;-80
2022/07/18 09:13:32;;;;;;;2.90;1.20;;;;;;;24.57;26.33;96124.63;5068216;28;20032;-81
2022/07/18 09:15:58;;;;;;;3.63;1.40;;;;;;;24.87;27.68;96124.50;5068191;28;20035;-80
2022/07/18 09:18:37;;;;;;;2.70;1.00;;;;;;;25.12;27.33;96123.22;5086477;28;20016;-81
2022/07/18 09:21:07;;;;;;;3.35;1.00;;;;;;;25.20;27.00;96132.97;5067791;28;20047;-81
2022/07/18 09:23:34;;;;;;;2.30;0.90;;;;;;;25.04;26.67;96125.34;5068746;28;20035;-81
2022/07/18 09:26:00;;;;;;;1.92;1.23;;;;;;;25.14;27.19;96135.63;5085648;28;20047;-81
2022/07/18 09:28:27;;;;;;;1.80;1.00;;;;;;;25.19;27.34;96137.59;5086556;28;20557;-81
2022/07/18 09:30:52;;;;;;;4.07;0.85;;;;;;;25.14;26.70;96137.53;5085626;28;20032;-80
2022/07/18 09:33:20;;;;;;;5.05;1.30;;;;;;;25.15;27.06;96139.22;5067775;28;20030;-81
2022/07/18 09:35:51;;;;;;;4.93;1.55;;;;;;;25.20;26.88;96135.69;5068499;28;20090;-81
2022/07/18 09:38:23;;;;;;;2.45;1.08;;;;;;;25.20;27.04;96139.25;5051239;28;20395;-81
2022/07/18 09:40:52;;;;;;;3.15;1.00;;;;;;;25.06;27.22;96133.31;5051466;28;20027;-80
2022/07/18 09:43:19;;;;;;;2.47;1.30;;;;;;;25.36;28.06;96142.22;5067674;28;20020;-79
2022/07/18 09:45:48;;;;;;;4.28;1.20;;;;;;;25.31;27.65;96135.56;5051339;28;20024;-79
2022/07/18 09:48:19;;;;;;;3.53;1.42;;;;;;;25.25;28.07;96135.75;5067153;28;20027;-80
2022/07/18 09:50:56;;;;;;;5.45;1.42;;;;;;;24.98;27.71;96120.88;5067743;28;20062;-80
2022/07/18 09:53:23;;;;;;;2.63;1.40;;;;;;;24.92;27.63;96133.66;5067234;28;20039;-79
2022/07/18 09:55:53;;;;;;;2.20;1.00;;;;;;;24.91;28.09;96118.28;5067333;28;20067;-80
2022/07/18 09:58:20;;;;;;;4.55;1.80;;;;;;;25.02;28.48;96123.94;5051030;28;20110;-80
2022/07/18 10:00:46;;;;;;;3.25;1.60;;;;;;;25.01;28.63;96122.25;5050299;28;20444;-80
2022/07/18 10:03:12;;;;;;;3.58;1.58;;;;;;;25.09;28.64;96118.25;5051356;28;20023;-82
2022/07/18 10:05:38;;;;;;;4.07;1.33;;;;;;;25.11;28.50;96116.09;5067202;28;20032;-80
2022/07/18 10:08:12;;;;;;;3.72;1.63;;;;;;;25.33;28.33;96109.78;5050531;28;20028;-80
2022/07/18 10:10:38;;;;;;;2.78;1.58;;;;;;;25.25;29.01;96120.13;5050396;28;20032;-81
2022/07/18 10:13:04;;;;;;;5.82;1.48;;;;;;;25.15;27.48;96114.50;5050116;28;20103;-79
2022/07/18 10:15:32;;;;;;;4.55;1.73;;;;;;;25.22;29.45;96120.63;5067283;28;20168;-81
2022/07/18 10:17:57;;;;;;;2.90;1.45;;;;;;;25.28;29.93;96116.03;5064024;28;20044;-80
2022/07/18 10:20:28;;;;;;;2.70;1.42;;;;;;;25.29;28.58;96113.03;5065553;28;20028;-81
2022/07/18 10:22:55;;;;;;;4.43;1.70;;;;;;;25.27;28.22;96103.41;5062843;28;20107;-80
2022/07/18 10:25:21;;;;;;;4.03;1.30;;;;;;;25.37;28.38;96097.19;5047031;28;20029;-80
2022/07/18 10:27:54;;;;;;;5.13;1.40;;;;;;;25.29;28.62;96098.50;5063883;28;20035;-79
2022/07/18 10:30:29;;;;;;;;;;;;;;;25.41;30.01;96090.94;5046946;28;20032;-79
2022/07/18 10:32:55;;;;;;;2.40;1.38;;;;;;;25.46;29.81;96090.16;5065224;28;19923;-82
2022/07/18 10:35:41;;;;;;;5.75;1.70;;;;;;;25.44;28.80;96089.59;5046583;28;20029;-80
2022/07/18 10:38:20;;;;;;;3.75;1.60;;;;;;;25.45;29.92;96088.53;5063808;28;20031;-80
2022/07/18 10:41:05;;;;;;;5.47;1.65;;;;;;;25.36;29.52;96082.63;5046486;28;20039;-79
2022/07/18 10:43:31;;;;;;;4.18;1.67;;;;;;;25.37;30.17;96083.47;5066514;28;20017;-79
2022/07/18 10:46:00;;;;;;;6.57;1.77;;;;;;;25.33;29.70;96072.16;5034137;28;20032;-81
2022/07/18 10:48:32;;;;;;;7.10;1.55;;;;;;;25.47;29.78;96075.34;5066407;28;20036;-80
2022/07/18 10:51:01;;;;;;;5.47;2.03;;;;;;;25.44;30.33;96075.84;5068879;28;20028;-80
2022/07/18 10:53:55;;;;;;;6.78;2.30;;;;;;;25.35;29.24;96078.25;5066573;28;20025;-79
2022/07/18 10:56:20;;;;;;;2.88;1.67;;;;;;;25.38;30.37;96063.16;5066827;28;20086;-80
2022/07/18 10:58:46;;;;;;;3.63;1.83;;;;;;;25.52;31.29;96072.66;5067014;28;20515;-79
2022/07/18 11:01:16;;;;;;;4.57;1.58;;;;;;;25.72;29.28;96068.50;5066490;28;20384;-81
2022/07/18 11:03:41;;;;;;;5.20;1.80;;;;;;;25.80;28.07;96070.81;5067231;28;20056;-80
2022/07/18 11:06:07;;;;;;;4.00;1.80;;;;;;;25.86;28.46;96060.69;5049839;28;20020;-83
2022/07/18 11:08:33;;;;;;;3.50;1.75;;;;;;;25.83;28.06;96055.69;5069399;28;20035;-82
2022/07/18 11:11:01;;;;;;;4.43;1.83;;;;;;;25.81;29.25;96055.13;5078216;28;20028;-79
2022/07/18 11:16:07;;;;;;;5.82;1.75;;;;;;;25.95;29.22;96057.47;5070185;28;20044;-80
2022/07/18 11:18:55;;;;;;;2.45;1.60;;;;;;;26.04;28.83;96047.66;5087734;28;20028;-81
2022/07/18 11:21:24;;;;;;;7.15;1.83;;;;;;;26.05;29.32;96055.63;5082072;28;20122;-81
2022/07/18 11:23:51;;;;;;;3.90;1.60;;;;;;;26.13;29.46;96048.00;5087338;28;20069;-80
2022/07/18 11:26:20;;;;;;;7.20;2.00;;;;;;;26.17;28.24;96051.88;5070255;28;20110;-80
2022/07/18 11:28:48;;;;;;;8.13;1.67;;;;;;;26.08;28.46;96053.47;5069539;28;20039;-79
2022/07/18 11:31:14;;;;;;;4.72;2.13;;;;;;;26.07;29.29;96051.81;5053113;28;20141;-81
2022/07/18 11:33:41;;;;;;;5.90;1.60;;;;;;;26.11;28.62;96059.28;5069554;28;20477;-79
2022/07/18 11:36:10;;;;;;;6.10;2.03;;;;;;;26.19;28.76;96046.97;5052413;28;20035;-80